createdAt,value
2023-01-22T00:06:29.139Z,4.97
2023-01-22T00:11:32.646Z,4.10
2023-01-22T00:16:29.404Z,5.28
2023-01-22T00:21:27.852Z,5.78
2023-01-22T00:23:56.358Z,4.88
2023-01-22T00:28:54.932Z,4.25
2023-01-22T00:31:24.328Z,5.32
2023-01-22T00:33:53.412Z,5.03
2023-01-22T00:36:23.656Z,5.53
2023-01-22T00:38:52.544Z,5.18
2023-01-22T00:41:21.502Z,4.97
2023-01-22T00:43:52.984Z,4.82
2023-01-22T00:46:21.969Z,5.65
2023-01-22T00:48:51.274Z,5.75
2023-01-22T00:51:22.000Z,5.95
2023-01-22T00:53:50.787Z,5.38
2023-01-22T00:58:51.770Z,4.90
2023-01-22T01:01:20.442Z,4.97
2023-01-22T01:06:19.966Z,5.15
2023-01-22T01:08:50.081Z,5.80
2023-01-22T01:11:22.069Z,5.20
2023-01-22T01:13:53.354Z,4.72
2023-01-22T01:16:26.747Z,5.50
2023-01-22T01:18:59.034Z,5.35
2023-01-22T01:21:28.184Z,5.05
2023-01-22T01:23:56.850Z,5.65
2023-01-22T01:26:25.714Z,4.82
2023-01-22T01:28:55.531Z,4.65
2023-01-22T01:31:26.443Z,5.18
2023-01-22T01:33:58.446Z,4.85
2023-01-22T01:36:47.175Z,5.70
2023-01-22T01:39:15.890Z,4.97
2023-01-22T01:41:44.477Z,5.35
2023-01-22T01:44:17.253Z,5.60
2023-01-22T01:46:49.914Z,5.05
2023-01-22T01:49:24.458Z,4.75
2023-01-22T01:51:56.260Z,5.78
2023-01-22T01:54:25.031Z,5.30
2023-01-22T01:56:58.804Z,5.25
2023-01-22T01:59:30.835Z,5.82
2023-01-22T02:01:59.489Z,5.32
2023-01-22T02:04:29.416Z,5.90
2023-01-22T02:06:57.892Z,5.70
2023-01-22T02:09:28.458Z,5.80
2023-01-22T02:11:57.105Z,6.15
2023-01-22T02:14:35.208Z,5.68
2023-01-22T02:17:08.328Z,5.28
2023-01-22T02:19:36.995Z,5.95
2023-01-22T02:24:42.999Z,6.15
2023-01-22T02:27:12.134Z,5.43
2023-01-22T02:29:41.488Z,7.65
2023-01-22T02:32:12.299Z,5.57
2023-01-22T02:34:41.037Z,5.55
2023-01-22T02:37:12.678Z,6.03
2023-01-22T02:39:41.581Z,6.30
2023-01-22T02:42:10.532Z,6.18
2023-01-22T02:44:40.163Z,7.07
2023-01-22T02:47:08.813Z,7.65
2023-01-22T02:49:37.387Z,8.25
2023-01-22T02:54:37.793Z,6.75
2023-01-22T02:57:06.336Z,6.68
2023-01-22T03:02:03.929Z,5.57
2023-01-22T03:07:00.723Z,6.55
2023-01-22T03:09:30.127Z,6.70
2023-01-22T03:12:00.597Z,6.35
2023-01-22T03:14:51.087Z,6.28
2023-01-22T03:17:37.806Z,6.25
2023-01-22T03:20:25.020Z,6.53
2023-01-22T03:22:55.088Z,6.25
2023-01-22T03:25:23.551Z,7.40
2023-01-22T03:28:16.737Z,7.35
2023-01-22T03:30:50.922Z,6.07
2023-01-22T03:35:50.402Z,6.97
2023-01-22T03:38:21.999Z,7.03
2023-01-22T03:40:50.543Z,7.25
2023-01-22T03:43:22.193Z,6.53
2023-01-22T03:45:56.770Z,6.82
2023-01-22T03:48:27.813Z,7.15
2023-01-22T03:56:00.327Z,6.60
2023-01-22T03:58:32.609Z,8.40
2023-01-22T04:01:03.486Z,6.90
2023-01-22T04:03:35.227Z,6.60
2023-01-22T04:06:09.265Z,7.43
2023-01-22T04:08:42.945Z,7.63
2023-01-22T04:11:12.168Z,7.40
2023-01-22T04:13:44.687Z,6.97
2023-01-22T04:16:14.563Z,7.03
2023-01-22T04:19:01.314Z,6.72
2023-01-22T04:21:49.840Z,7.38
2023-01-22T04:24:20.044Z,7.45
2023-01-22T04:26:50.377Z,7.95
2023-01-22T04:29:22.760Z,7.50
2023-01-22T04:31:51.464Z,7.68
2023-01-22T04:37:02.195Z,7.15
2023-01-22T04:39:33.834Z,7.68
2023-01-22T04:44:31.906Z,8.57
2023-01-22T04:47:00.901Z,8.23
2023-01-22T04:49:29.662Z,7.13
2023-01-22T04:51:58.347Z,8.25
2023-01-22T04:54:27.920Z,7.50
2023-01-22T04:56:56.677Z,8.48
2023-01-22T04:59:25.655Z,7.88
2023-01-22T05:01:56.062Z,9.18
2023-01-22T05:04:24.926Z,8.93
2023-01-22T05:06:55.982Z,8.77
2023-01-22T05:09:25.809Z,9.15
2023-01-22T05:11:59.976Z,8.98
2023-01-22T05:14:33.446Z,9.55
2023-01-22T05:17:06.398Z,8.68
2023-01-22T05:19:36.207Z,9.25
2023-01-22T05:22:09.515Z,8.43
2023-01-22T05:24:38.719Z,11.10
2023-01-22T05:29:43.055Z,8.52
2023-01-22T05:32:35.205Z,9.90
2023-01-22T05:35:05.405Z,8.82
2023-01-22T05:37:39.185Z,8.75
2023-01-22T05:40:09.825Z,9.75
2023-01-22T05:42:38.362Z,9.15
2023-01-22T05:45:10.423Z,9.32
2023-01-22T05:47:53.112Z,8.70
2023-01-22T05:50:36.778Z,8.55
2023-01-22T05:53:11.740Z,9.65
2023-01-22T05:55:40.353Z,9.57
2023-01-22T05:58:09.795Z,9.23
2023-01-22T06:00:40.537Z,9.13
2023-01-22T06:03:15.531Z,10.63
2023-01-22T06:05:49.330Z,9.90
2023-01-22T06:08:17.827Z,9.65
2023-01-22T06:10:52.004Z,8.52
2023-01-22T06:13:20.969Z,8.65
2023-01-22T06:15:56.901Z,9.23
2023-01-22T06:18:46.956Z,10.35
2023-01-22T06:21:17.460Z,9.32
2023-01-22T06:23:46.856Z,8.63
2023-01-22T06:26:15.534Z,9.52
2023-01-22T06:28:45.336Z,8.40
2023-01-22T06:31:16.604Z,9.95
2023-01-22T06:33:50.483Z,9.43
2023-01-22T06:36:21.401Z,9.40
2023-01-22T06:38:54.504Z,10.10
2023-01-22T06:41:41.945Z,8.93
2023-01-22T06:44:14.523Z,9.48
2023-01-22T06:46:44.021Z,9.55
2023-01-22T06:49:21.697Z,9.20
2023-01-22T06:51:52.064Z,9.98
2023-01-22T06:54:21.074Z,9.55
2023-01-22T06:56:49.599Z,9.70
2023-01-22T06:59:22.152Z,9.35
2023-01-22T07:04:20.443Z,10.35
2023-01-22T07:06:53.219Z,10.63
2023-01-22T07:09:30.117Z,9.45
2023-01-22T07:12:01.177Z,10.02
2023-01-22T07:14:36.740Z,11.55
2023-01-22T07:17:07.378Z,11.38
2023-01-22T07:19:37.413Z,9.75
2023-01-22T07:22:06.055Z,11.20
2023-01-22T07:27:03.818Z,10.48
2023-01-22T07:29:32.299Z,10.82
2023-01-22T07:32:00.990Z,10.75
2023-01-22T07:34:30.304Z,10.45
2023-01-22T07:37:04.123Z,10.27
2023-01-22T07:39:32.791Z,11.75
2023-01-22T07:44:32.440Z,10.32
2023-01-22T07:47:01.098Z,11.05
2023-01-22T07:52:00.916Z,10.00
2023-01-22T07:54:36.734Z,10.55
2023-01-22T07:57:05.905Z,10.82
2023-01-22T07:59:34.492Z,11.95
2023-01-22T08:04:35.419Z,10.93
2023-01-22T08:07:05.354Z,11.02
2023-01-22T08:09:34.073Z,11.32
2023-01-22T08:14:30.986Z,11.43
2023-01-22T08:16:59.593Z,10.38
2023-01-22T08:22:01.079Z,10.70
2023-01-22T08:27:00.422Z,11.80
2023-01-22T08:31:57.445Z,11.07
2023-01-22T08:34:26.491Z,12.38
2023-01-22T08:36:55.139Z,13.73
2023-01-22T08:39:27.006Z,14.25
2023-01-22T08:42:06.182Z,11.75
2023-01-22T08:44:34.837Z,11.98
2023-01-22T08:49:32.303Z,11.55
2023-01-22T08:52:03.940Z,11.48
2023-01-22T08:54:38.487Z,12.15
2023-01-22T08:57:08.668Z,11.68
2023-01-22T08:59:37.287Z,11.40
2023-01-22T09:02:05.964Z,11.93
2023-01-22T09:04:35.146Z,11.13
2023-01-22T09:07:03.633Z,11.20
2023-01-22T09:09:32.153Z,12.38
2023-01-22T09:12:00.670Z,11.85
2023-01-22T09:14:30.651Z,13.20
2023-01-22T09:16:59.110Z,13.27
2023-01-22T09:19:27.656Z,13.82
2023-01-22T09:21:56.127Z,12.75
2023-01-22T09:24:24.561Z,12.70
2023-01-22T09:26:52.983Z,11.70
2023-01-22T09:29:21.531Z,13.10
2023-01-22T09:31:51.466Z,15.55
2023-01-22T09:34:20.208Z,13.63
2023-01-22T09:36:48.667Z,12.93
2023-01-22T09:39:17.155Z,12.65
2023-01-22T09:41:50.741Z,12.68
2023-01-22T09:44:23.843Z,12.43
2023-01-22T09:46:58.100Z,12.85
2023-01-22T09:49:33.038Z,12.73
2023-01-22T09:52:05.178Z,13.38
2023-01-22T09:54:35.199Z,13.57
2023-01-22T09:57:06.360Z,13.35
2023-01-22T09:59:44.735Z,13.43
2023-01-22T10:02:27.935Z,12.82
2023-01-22T10:05:04.063Z,13.80
2023-01-22T10:07:37.810Z,12.55
2023-01-22T10:10:25.675Z,12.38
2023-01-22T10:13:02.427Z,13.02
2023-01-22T10:15:31.041Z,12.73
2023-01-22T10:18:01.540Z,12.48
2023-01-22T10:20:30.227Z,12.70
2023-01-22T10:26:00.327Z,13.13
2023-01-22T10:28:30.570Z,12.25
2023-01-22T10:30:59.870Z,14.38
2023-01-22T10:33:29.895Z,12.25
2023-01-22T10:35:58.568Z,13.40
2023-01-22T10:40:59.959Z,12.30
2023-01-22T10:43:34.019Z,12.55
2023-01-22T10:46:07.547Z,13.48
2023-01-22T10:48:37.982Z,12.63
2023-01-22T10:51:16.264Z,11.60
2023-01-22T10:53:53.750Z,12.45
2023-01-22T10:56:31.228Z,12.60
2023-01-22T10:59:01.498Z,12.10
2023-01-22T11:01:34.419Z,12.43
2023-01-22T11:04:14.575Z,12.75
2023-01-22T11:06:48.775Z,14.18
2023-01-22T11:09:24.978Z,12.43
2023-01-22T11:12:03.521Z,12.65
2023-01-22T11:15:17.482Z,11.48
2023-01-22T11:17:52.830Z,11.88
2023-01-22T11:20:29.141Z,13.23
2023-01-22T11:23:23.052Z,12.30
2023-01-22T11:26:32.299Z,13.00
2023-01-22T11:29:57.183Z,12.90
2023-01-22T11:33:21.289Z,12.65
2023-01-22T11:36:14.327Z,12.82
2023-01-22T11:38:51.514Z,13.73
2023-01-22T11:41:34.582Z,13.10
2023-01-22T11:44:23.776Z,13.70
2023-01-22T11:47:04.557Z,14.02
2023-01-22T11:49:41.920Z,13.05
2023-01-22T11:52:26.818Z,14.77
2023-01-22T11:55:08.634Z,14.25
2023-01-22T11:57:41.429Z,14.85
2023-01-22T12:00:33.651Z,14.77
2023-01-22T12:03:28.702Z,13.95
2023-01-22T12:06:17.309Z,14.07
2023-01-22T12:09:00.527Z,13.70
2023-01-22T12:11:58.021Z,13.88
2023-01-22T12:14:46.089Z,13.25
2023-01-22T12:17:30.682Z,13.40
2023-01-22T12:20:21.661Z,13.93
2023-01-22T12:22:57.966Z,13.23
2023-01-22T12:25:37.863Z,13.65
2023-01-22T12:28:15.581Z,13.70
2023-01-22T12:30:53.404Z,13.25
2023-01-22T12:33:27.175Z,12.95
2023-01-22T12:36:01.780Z,13.27
2023-01-22T12:38:41.875Z,12.18
2023-01-22T12:41:46.733Z,13.32
2023-01-22T12:44:33.909Z,13.07
2023-01-22T12:47:11.447Z,13.20
2023-01-22T12:49:50.389Z,12.25
2023-01-22T12:52:34.556Z,13.80
2023-01-22T12:55:05.468Z,13.73
2023-01-22T12:57:43.221Z,13.63
2023-01-22T13:00:23.880Z,13.35
2023-01-22T13:02:53.293Z,13.93
2023-01-22T13:05:37.246Z,13.13
2023-01-22T13:08:08.377Z,16.65
2023-01-22T13:10:38.217Z,14.65
2023-01-22T13:13:23.484Z,15.05
2023-01-22T13:15:58.243Z,13.85
2023-01-22T13:18:30.948Z,13.48
2023-01-22T13:21:04.177Z,15.25
2023-01-22T13:23:35.237Z,13.65
2023-01-22T13:26:05.490Z,13.52
2023-01-22T13:28:38.173Z,14.25
2023-01-22T13:31:11.128Z,13.80
2023-01-22T13:33:39.822Z,13.73
2023-01-22T13:36:14.595Z,12.00
2023-01-22T13:38:43.170Z,13.60
2023-01-22T13:41:19.522Z,14.48
2023-01-22T13:43:49.691Z,13.15
2023-01-22T13:46:18.360Z,13.32
2023-01-22T13:51:19.464Z,14.15
2023-01-22T13:53:53.061Z,15.00
2023-01-22T13:56:27.995Z,13.27
2023-01-22T13:59:19.710Z,14.02
2023-01-22T14:01:48.631Z,12.75
2023-01-22T14:04:28.950Z,13.40
2023-01-22T14:06:57.821Z,14.38
2023-01-22T14:09:28.165Z,14.27
2023-01-22T14:11:56.896Z,13.38
2023-01-22T14:16:55.244Z,12.65
2023-01-22T14:19:23.756Z,12.98
2023-01-22T14:24:20.324Z,12.05
2023-01-22T14:29:17.139Z,12.75
2023-01-22T14:31:47.159Z,12.63
2023-01-22T14:34:15.736Z,12.20
2023-01-22T14:39:13.655Z,12.10
2023-01-22T14:41:42.124Z,13.10
2023-01-22T14:44:11.089Z,12.88
2023-01-22T14:46:39.534Z,12.05
2023-01-22T14:49:09.444Z,13.45
2023-01-22T14:51:38.030Z,13.25
2023-01-22T14:56:34.864Z,13.00
2023-01-22T14:59:04.708Z,11.38
2023-01-22T15:01:33.494Z,11.90
2023-01-22T15:04:06.390Z,12.35
2023-01-22T15:06:36.553Z,12.45
2023-01-22T15:09:05.505Z,12.27
2023-01-22T15:11:34.301Z,12.32
2023-01-22T15:14:05.423Z,13.15
2023-01-22T15:16:34.222Z,12.98
2023-01-22T15:21:31.890Z,12.70
2023-01-22T15:26:35.450Z,12.10
2023-01-22T15:29:05.799Z,13.20
2023-01-22T15:31:34.690Z,12.70
2023-01-22T15:34:04.267Z,11.82
2023-01-22T15:36:37.314Z,12.40
2023-01-22T15:39:07.492Z,11.93
2023-01-22T15:41:37.741Z,13.18
2023-01-22T15:44:07.330Z,13.98
2023-01-22T15:46:37.905Z,12.60
2023-01-22T15:49:08.286Z,11.80
2023-01-22T15:51:37.605Z,11.75
2023-01-22T15:54:16.270Z,11.85
2023-01-22T15:56:48.159Z,12.43
2023-01-22T15:59:16.643Z,12.80
2023-01-22T16:01:45.492Z,12.07
2023-01-22T16:04:14.070Z,13.32
2023-01-22T16:06:45.592Z,13.75
2023-01-22T16:09:15.710Z,12.27
2023-01-22T16:11:44.498Z,13.05
2023-01-22T16:16:41.589Z,12.48
2023-01-22T16:19:13.431Z,14.55
2023-01-22T16:21:43.512Z,12.70
2023-01-22T16:24:15.460Z,14.32
2023-01-22T16:26:46.907Z,13.02
2023-01-22T16:29:15.874Z,15.20
2023-01-22T16:36:48.901Z,14.50
2023-01-22T16:39:22.307Z,13.73
2023-01-22T16:41:52.915Z,15.75
2023-01-22T16:44:26.492Z,14.70
2023-01-22T16:46:59.992Z,14.80
2023-01-22T16:49:30.769Z,14.82
2023-01-22T16:52:16.648Z,15.48
2023-01-22T16:54:52.168Z,15.07
2023-01-22T16:57:20.939Z,16.00
2023-01-22T16:59:49.608Z,14.68
2023-01-22T17:04:50.226Z,14.82
2023-01-22T17:07:32.911Z,16.50
2023-01-22T17:10:08.031Z,16.10
2023-01-22T17:12:41.608Z,15.48
2023-01-22T17:15:11.283Z,14.80
2023-01-22T17:17:39.991Z,16.20
2023-01-22T17:22:39.796Z,14.25
2023-01-22T17:27:39.795Z,15.95
2023-01-22T17:30:16.425Z,16.05
2023-01-22T17:32:46.990Z,17.00
2023-01-22T17:35:17.160Z,16.65
2023-01-22T17:37:47.382Z,17.33
2023-01-22T17:40:19.534Z,17.45
2023-01-22T17:42:48.192Z,16.63
2023-01-22T17:45:40.254Z,17.42
2023-01-22T17:48:09.566Z,16.25
2023-01-22T17:50:41.266Z,16.63
2023-01-22T17:53:10.100Z,16.17
2023-01-22T17:55:40.513Z,15.15
2023-01-22T17:58:10.740Z,14.98
2023-01-22T18:00:39.596Z,15.40
2023-01-22T18:03:08.286Z,17.25
2023-01-22T18:05:37.195Z,16.23
2023-01-22T18:08:08.285Z,16.77
2023-01-22T18:10:43.598Z,16.50
2023-01-22T18:13:12.370Z,15.63
2023-01-22T18:18:14.660Z,14.93
2023-01-22T18:20:44.860Z,14.68
2023-01-22T18:23:24.811Z,13.52
2023-01-22T18:25:58.311Z,14.10
2023-01-22T18:28:28.742Z,13.43
2023-01-22T18:30:57.562Z,14.75
2023-01-22T18:33:26.643Z,14.13
2023-01-22T18:36:22.145Z,12.70
2023-01-22T18:39:00.517Z,13.65
2023-01-22T18:44:01.604Z,13.73
2023-01-22T18:46:33.498Z,14.13
2023-01-22T18:49:03.833Z,15.38
2023-01-22T18:51:37.066Z,14.23
2023-01-22T18:54:06.729Z,15.23
2023-01-22T18:56:42.302Z,14.43
2023-01-22T18:59:13.316Z,12.45
2023-01-22T19:01:43.729Z,12.48
2023-01-22T19:04:18.080Z,11.68
2023-01-22T19:06:54.535Z,13.55
2023-01-22T19:09:23.198Z,11.48
2023-01-22T19:14:27.360Z,10.95
2023-01-22T19:16:55.961Z,11.00
2023-01-22T19:19:27.535Z,10.88
2023-01-22T19:21:58.142Z,12.07
2023-01-22T19:24:28.568Z,12.10
2023-01-22T19:26:59.150Z,12.52
2023-01-22T19:29:28.108Z,13.13
2023-01-22T19:31:59.548Z,12.65
2023-01-22T19:34:30.456Z,13.43
2023-01-22T19:37:02.751Z,12.15
2023-01-22T19:39:32.613Z,13.45
2023-01-22T19:42:05.337Z,12.07
2023-01-22T19:44:36.291Z,13.73
2023-01-22T19:47:05.225Z,12.02
2023-01-22T19:49:36.697Z,12.73
2023-01-22T19:52:05.707Z,11.15
2023-01-22T19:54:36.635Z,13.63
2023-01-22T19:57:06.770Z,13.27
2023-01-22T19:59:35.471Z,14.43
2023-01-22T20:02:04.057Z,13.68
2023-01-22T20:07:07.376Z,12.35
2023-01-22T20:09:36.994Z,12.73
2023-01-22T20:12:09.261Z,13.25
2023-01-22T20:14:43.383Z,12.90
2023-01-22T20:17:14.006Z,12.75
2023-01-22T20:19:42.492Z,12.95
2023-01-22T20:22:17.005Z,12.52
2023-01-22T20:24:48.450Z,12.93
2023-01-22T20:27:18.426Z,13.02
2023-01-22T20:29:51.834Z,12.77
2023-01-22T20:32:20.703Z,11.75
2023-01-22T20:34:49.880Z,11.60
2023-01-22T20:37:18.421Z,11.48
2023-01-22T20:39:49.456Z,12.13
2023-01-22T20:42:19.631Z,13.15
2023-01-22T20:44:48.401Z,13.00
2023-01-22T20:49:47.965Z,11.82
2023-01-22T20:52:17.820Z,12.98
2023-01-22T20:55:00.993Z,12.80
2023-01-22T20:57:33.965Z,11.55
2023-01-22T21:00:02.484Z,11.98
2023-01-22T21:02:33.790Z,11.52
2023-01-22T21:09:59.245Z,11.68
2023-01-22T21:12:28.457Z,12.75
2023-01-22T21:14:58.435Z,13.18
2023-01-22T21:17:28.239Z,11.88
2023-01-22T21:19:58.106Z,11.32
2023-01-22T21:22:29.549Z,12.57
2023-01-22T21:24:58.080Z,11.50
2023-01-22T21:27:26.672Z,13.30
2023-01-22T21:32:46.367Z,13.05
2023-01-22T21:35:22.438Z,12.45
2023-01-22T21:37:51.103Z,11.65
2023-01-22T21:40:21.898Z,12.63
2023-01-22T21:43:08.400Z,12.45
2023-01-22T21:45:59.571Z,11.80
2023-01-22T21:48:30.561Z,13.00
2023-01-22T21:50:59.164Z,13.35
2023-01-22T21:53:27.639Z,12.93
2023-01-22T21:58:24.381Z,13.27
2023-01-22T22:03:23.672Z,13.38
2023-01-22T22:06:03.326Z,15.43
2023-01-22T22:08:32.007Z,13.95
2023-01-22T22:11:00.997Z,14.73
2023-01-22T22:13:33.101Z,14.88
2023-01-22T22:16:02.623Z,13.98
2023-01-22T22:18:31.103Z,16.13
2023-01-22T22:21:04.993Z,15.02
2023-01-22T22:23:35.331Z,15.63
2023-01-22T22:26:04.434Z,15.50
2023-01-22T22:28:33.533Z,15.82
2023-01-22T22:31:08.348Z,14.13
2023-01-22T22:33:36.945Z,14.50
2023-01-22T22:38:37.925Z,15.25
2023-01-22T22:41:08.816Z,14.20
2023-01-22T22:43:41.073Z,14.07
2023-01-22T22:46:13.995Z,15.55
2023-01-22T22:48:42.705Z,15.32
2023-01-22T22:51:13.876Z,14.18
2023-01-22T22:53:43.129Z,13.73
2023-01-22T22:56:12.418Z,16.88
2023-01-22T22:58:41.655Z,14.55
2023-01-22T23:01:11.315Z,15.27
2023-01-22T23:03:41.006Z,15.85
2023-01-22T23:06:12.179Z,16.10
2023-01-22T23:08:52.816Z,16.05
2023-01-22T23:11:28.396Z,14.60
2023-01-22T23:14:01.512Z,16.23
2023-01-22T23:16:42.647Z,15.75
2023-01-22T23:19:15.704Z,15.68
2023-01-22T23:21:44.959Z,16.88
2023-01-22T23:24:15.600Z,16.05
2023-01-22T23:26:45.853Z,16.63
2023-01-22T23:29:17.254Z,17.55
2023-01-22T23:31:46.320Z,16.08
2023-01-22T23:34:18.277Z,15.73
2023-01-22T23:36:48.603Z,15.43
2023-01-22T23:39:23.306Z,13.43
2023-01-22T23:41:51.836Z,13.82
2023-01-22T23:44:20.358Z,13.38
2023-01-22T23:46:49.143Z,11.48
2023-01-22T23:49:17.632Z,12.18
2023-01-22T23:54:14.494Z,13.38
2023-01-22T23:56:44.495Z,12.30
2023-01-22T23:59:13.666Z,13.18
